Time;durP1;ratioP1;P1;durP2;ratioP2;P2;SDS_P1;SDS_P2;PMS_P1;PMS_P2;Temp;Humidity;BMP_temperature;BMP_pressure;BME280_temperature;BME280_humidity;BME280_pressure;Samples;Min_cycle;Max_cycle;Signal;HPM_P1;HPM_P2
2021/05/01 00:01:43;;;;;;;44.97;34.75;;;;;;;6.69;78.57;100069.78;5037341;28;20057;-73
2021/05/01 00:04:10;;;;;;;43.90;35.88;;;;;;;6.68;78.61;100066.25;5037262;28;20053;-74
2021/05/01 00:06:36;;;;;;;46.30;34.05;;;;;;;6.62;78.74;100063.88;5019924;28;20323;-73
2021/05/01 00:09:02;;;;;;;45.38;36.92;;;;;;;6.65;78.72;100071.69;5036923;28;20057;-73
2021/05/01 00:11:29;;;;;;;44.22;34.97;;;;;;;6.61;78.57;100067.47;5037167;28;20053;-74
2021/05/01 00:13:56;;;;;;;47.40;38.60;;;;;;;6.62;78.46;100062.09;5045200;28;20061;-74
2021/05/01 00:16:24;;;;;;;47.45;36.92;;;;;;;6.64;78.67;100068.19;5039068;28;20049;-73
2021/05/01 00:18:51;;;;;;;51.42;38.47;;;;;;;6.61;78.88;100064.81;5039301;28;20057;-73
2021/05/01 00:21:17;;;;;;;49.92;37.20;;;;;;;6.49;79.05;100063.59;5039278;28;20079;-74
2021/05/01 00:23:43;;;;;;;48.55;37.13;;;;;;;6.46;79.32;100071.66;5056779;28;20103;-75
2021/05/01 00:26:12;;;;;;;46.13;36.00;;;;;;;6.41;79.30;100055.09;5056873;28;20053;-73
2021/05/01 00:28:39;;;;;;;52.03;37.88;;;;;;;6.49;78.87;100069.72;5056892;28;20056;-74
2021/05/01 00:31:06;;;;;;;53.08;37.65;;;;;;;6.34;79.64;100063.34;5039027;28;20045;-74
2021/05/01 00:33:33;;;;;;;52.92;39.55;;;;;;;6.37;79.21;100054.38;5056534;28;20434;-74
2021/05/01 00:35:59;;;;;;;50.67;37.88;;;;;;;6.42;79.73;100065.63;5056778;28;20048;-74
2021/05/01 00:38:26;;;;;;;49.60;38.15;;;;;;;6.38;79.29;100056.97;5039226;28;20064;-73
2021/05/01 00:40:52;;;;;;;49.88;37.70;;;;;;;6.45;79.02;100059.34;5056518;28;20052;-73
2021/05/01 00:43:18;;;;;;;49.88;38.13;;;;;;;6.41;78.82;100063.06;5039286;28;20115;-74
2021/05/01 00:45:45;;;;;;;48.95;37.95;;;;;;;6.37;79.34;100059.69;5056317;28;20076;-73
2021/05/01 00:48:11;;;;;;;46.92;38.30;;;;;;;6.31;79.40;100047.56;5022647;28;20049;-74
2021/05/01 00:50:37;;;;;;;48.83;38.10;;;;;;;6.25;79.88;100058.44;5056382;28;20068;-74
2021/05/01 00:53:04;;;;;;;52.45;40.20;;;;;;;6.25;79.39;100063.75;5056426;28;20061;-74
2021/05/01 00:55:36;;;;;;;50.72;39.97;;;;;;;6.29;79.66;100062.69;5056281;28;20106;-73
2021/05/01 00:58:03;;;;;;;52.33;38.47;;;;;;;6.21;80.07;100051.59;5039042;28;20412;-73
2021/05/01 01:03:16;;;;;;;51.55;41.08;;;;;;;6.14;80.51;100052.78;5056260;28;20060;-73
2021/05/01 01:05:42;;;;;;;47.65;38.78;;;;;;;6.15;80.30;100049.19;5038693;28;20045;-74
2021/05/01 01:08:09;;;;;;;49.53;39.95;;;;;;;6.21;80.11;100060.38;5055691;28;20057;-74
2021/05/01 01:10:35;;;;;;;53.22;40.10;;;;;;;6.23;79.44;100047.91;5037910;28;20056;-74
2021/05/01 01:13:02;;;;;;;50.92;39.97;;;;;;;6.31;79.84;100054.69;5055975;28;20059;-73
2021/05/01 01:15:30;;;;;;;55.20;41.60;;;;;;;6.31;79.41;100049.38;5055557;28;20430;-73
2021/05/01 01:17:57;;;;;;;49.13;38.55;;;;;;;6.34;79.56;100050.09;5036027;28;20058;-73
2021/05/01 01:20:24;;;;;;;52.17;39.67;;;;;;;6.41;78.84;100052.44;5018847;28;20053;-73
2021/05/01 01:22:51;;;;;;;53.42;41.28;;;;;;;6.48;78.79;100046.81;5035769;28;20057;-73
2021/05/01 01:25:18;;;;;;;52.35;40.00;;;;;;;6.47;78.68;100045.09;5002053;28;20430;-74
2021/05/01 01:27:46;;;;;;;53.47;39.28;;;;;;;6.43;79.10;100048.81;5036015;28;20072;-74
2021/05/01 01:30:15;;;;;;;47.53;38.45;;;;;;;6.36;79.09;100050.00;5002522;28;20061;-74
2021/05/01 01:32:42;;;;;;;53.28;39.08;;;;;;;6.25;79.51;100047.84;5018877;28;20060;-74
2021/05/01 01:35:10;;;;;;;55.53;40.22;;;;;;;6.20;79.80;100049.84;5034707;28;20095;-74
2021/05/01 01:37:40;;;;;;;51.58;40.63;;;;;;;6.18;79.66;100049.06;5018094;28;20490;-75
2021/05/01 01:40:07;;;;;;;50.58;39.80;;;;;;;6.07;80.33;100050.41;5036875;28;20103;-73
2021/05/01 01:42:33;;;;;;;56.08;42.20;;;;;;;5.98;80.50;100050.75;5036444;28;20053;-74
2021/05/01 01:44:59;;;;;;;55.58;41.20;;;;;;;5.95;80.38;100051.75;5018393;28;20092;-74
2021/05/01 01:47:30;;;;;;;56.08;42.17;;;;;;;5.85;80.40;100031.91;5035433;28;20057;-74
2021/05/01 01:49:56;;;;;;;55.90;40.40;;;;;;;5.87;80.34;100045.09;5035711;28;20053;-74
2021/05/01 01:52:22;;;;;;;58.20;42.45;;;;;;;5.77;80.98;100049.91;5018210;28;20071;-73
2021/05/01 01:54:48;;;;;;;57.55;41.70;;;;;;;5.69;81.02;100044.94;5001904;28;20122;-74
2021/05/01 01:57:15;;;;;;;57.38;41.72;;;;;;;5.68;81.59;100045.88;5035573;28;20065;-74
2021/05/01 01:59:42;;;;;;;55.25;42.22;;;;;;;5.69;81.27;100050.22;5035540;28;20076;-74
2021/05/01 02:02:10;;;;;;;54.95;41.72;;;;;;;5.56;81.37;100050.75;5034872;28;20087;-73
2021/05/01 02:04:36;;;;;;;55.72;41.85;;;;;;;5.58;81.37;100051.53;5035157;28;20060;-74
2021/05/01 02:07:04;;;;;;;56.28;41.75;;;;;;;5.57;81.37;100047.16;5035047;28;20431;-73
2021/05/01 02:09:31;;;;;;;53.92;42.70;;;;;;;5.52;80.98;100057.13;5035023;28;20049;-74
2021/05/01 02:11:58;;;;;;;58.90;43.65;;;;;;;5.46;81.98;100052.06;5001720;28;20053;-73
2021/05/01 02:14:24;;;;;;;54.13;42.55;;;;;;;5.46;81.51;100038.84;5035231;28;20103;-74
2021/05/01 02:16:51;;;;;;;53.80;40.53;;;;;;;5.43;81.33;100045.13;5045952;28;20049;-74
2021/05/01 02:19:17;;;;;;;53.28;42.53;;;;;;;5.39;81.76;100032.06;5054991;28;20057;-74
2021/05/01 02:21:43;;;;;;;55.15;42.55;;;;;;;5.31;82.41;100042.97;5039591;28;20053;-74
2021/05/01 02:24:09;;;;;;;62.55;45.78;;;;;;;5.29;82.29;100032.44;5059157;28;20331;-74
2021/05/01 02:26:35;;;;;;;57.35;43.40;;;;;;;5.22;82.48;100040.72;5059224;28;20060;-73
2021/05/01 02:29:02;;;;;;;54.03;42.88;;;;;;;5.13;83.27;100036.66;5041641;28;20106;-74
2021/05/01 02:31:28;;;;;;;56.92;43.20;;;;;;;5.15;83.16;100037.44;5058825;28;20056;-73
2021/05/01 02:33:54;;;;;;;58.38;44.67;;;;;;;5.07;83.38;100039.53;5059017;28;20045;-74
2021/05/01 02:36:21;;;;;;;69.13;44.30;;;;;;;5.05;82.83;100039.59;5041605;28;20053;-73
2021/05/01 02:38:47;;;;;;;56.00;42.47;;;;;;;5.00;83.03;100045.06;5059243;28;20049;-73
2021/05/01 02:41:13;;;;;;;55.35;42.25;;;;;;;5.01;82.59;100041.50;5041485;28;20056;-73
2021/05/01 02:43:39;;;;;;;59.40;42.65;;;;;;;4.92;82.95;100041.00;5058647;28;20457;-74
2021/05/01 02:46:05;;;;;;;57.67;43.97;;;;;;;4.87;83.14;100039.41;5040669;28;20051;-73
2021/05/01 02:48:31;;;;;;;58.15;43.47;;;;;;;4.90;82.74;100043.69;5058731;28;20057;-73
2021/05/01 02:50:59;;;;;;;56.17;42.42;;;;;;;4.94;82.63;100039.16;5058685;28;20115;-73
2021/05/01 02:53:25;;;;;;;56.67;42.60;;;;;;;4.89;82.80;100036.69;5058395;28;20383;-74
2021/05/01 02:55:51;;;;;;;55.35;40.20;;;;;;;5.02;82.28;100031.78;5058386;28;20453;-73
2021/05/01 02:58:17;;;;;;;54.72;41.47;;;;;;;4.95;82.27;100025.88;5058503;28;20072;-73
2021/05/01 03:00:44;;;;;;;56.33;43.40;;;;;;;4.95;82.22;100023.22;5058396;28;20048;-74
2021/05/01 03:03:10;;;;;;;57.47;42.47;;;;;;;4.97;82.08;100018.72;5058557;28;20089;-73
2021/05/01 03:05:36;;;;;;;56.83;41.22;;;;;;;4.79;82.90;100020.31;5058300;28;20052;-74
2021/05/01 03:08:02;;;;;;;54.38;42.42;;;;;;;4.76;82.47;100016.00;5040874;28;20078;-74
2021/05/01 03:10:29;;;;;;;54.28;42.85;;;;;;;4.71;82.79;100015.34;5040901;28;20056;-73
2021/05/01 03:12:56;;;;;;;54.15;40.92;;;;;;;4.64;82.99;100019.16;5040853;28;20048;-74
2021/05/01 03:15:23;;;;;;;57.33;41.78;;;;;;;4.46;82.81;99997.78;5058230;28;20045;-73
2021/05/01 03:17:50;;;;;;;59.00;43.58;;;;;;;4.43;83.65;100019.06;5057853;28;20064;-74
2021/05/01 03:20:17;;;;;;;61.20;43.53;;;;;;;4.40;83.65;100019.16;5057918;28;20071;-73
2021/05/01 03:22:45;;;;;;;54.42;42.42;;;;;;;4.47;83.67;100018.00;5040640;28;20048;-72
2021/05/01 03:25:11;;;;;;;60.10;42.55;;;;;;;4.44;83.77;100020.78;5058233;28;20052;-73
2021/05/01 03:27:38;;;;;;;57.95;42.70;;;;;;;4.45;83.48;100017.22;5057711;28;20358;-73
2021/05/01 03:30:08;;;;;;;53.35;42.75;;;;;;;4.32;83.68;100015.94;5040460;28;20056;-74
2021/05/01 03:32:34;;;;;;;60.03;41.58;;;;;;;4.33;83.74;100022.97;5057644;28;20053;-73
2021/05/01 03:35:01;;;;;;;59.63;43.47;;;;;;;4.30;83.77;100028.38;5040211;28;20084;-74
2021/05/01 03:37:27;;;;;;;57.65;44.22;;;;;;;4.24;84.38;100028.59;5057672;28;20057;-74
2021/05/01 03:39:53;;;;;;;57.25;43.63;;;;;;;4.18;84.36;100016.44;5057882;28;20048;-74
2021/05/01 03:42:19;;;;;;;56.15;41.95;;;;;;;4.16;84.17;100020.94;5057574;28;20426;-74
2021/05/01 03:44:45;;;;;;;58.78;43.25;;;;;;;4.12;84.06;100008.75;5040284;28;20049;-74
2021/05/01 03:47:12;;;;;;;60.78;42.75;;;;;;;4.38;83.90;100021.00;5057506;28;20453;-74
2021/05/01 03:49:39;;;;;;;56.42;42.60;;;;;;;4.44;84.06;100026.06;5039970;28;20159;-73
2021/05/01 03:52:06;;;;;;;60.33;42.63;;;;;;;4.45;83.45;100026.91;5057737;28;20076;-74
2021/05/01 03:54:32;;;;;;;57.33;43.75;;;;;;;4.41;83.72;100031.44;5057250;28;20057;-74
2021/05/01 03:56:59;;;;;;;58.83;44.33;;;;;;;4.39;84.24;100035.06;5057229;28;20453;-73
2021/05/01 03:59:26;;;;;;;60.13;43.85;;;;;;;4.34;83.86;100035.25;5039975;28;20095;-74
2021/05/01 04:01:53;;;;;;;58.95;42.90;;;;;;;4.27;84.30;100034.63;5023265;28;20358;-73
2021/05/01 04:04:19;;;;;;;58.13;43.25;;;;;;;4.21;84.54;100034.84;5039554;28;20057;-73
2021/05/01 04:06:46;;;;;;;55.42;42.40;;;;;;;4.23;84.43;100034.81;5057303;28;20084;-73
2021/05/01 04:09:12;;;;;;;59.92;43.05;;;;;;;4.07;84.76;100028.28;5039640;28;20060;-73
2021/05/01 04:11:39;;;;;;;56.42;43.63;;;;;;;4.15;84.15;100041.19;5057264;28;20123;-74
2021/05/01 04:14:05;;;;;;;62.03;43.30;;;;;;;4.17;84.44;100042.03;5056941;28;20106;-74
2021/05/01 04:16:31;;;;;;;59.10;45.03;;;;;;;4.12;84.43;100051.88;5039166;28;20434;-74
2021/05/01 04:18:57;;;;;;;61.10;45.28;;;;;;;4.11;84.30;100044.88;5057048;28;20106;-74
2021/05/01 04:21:23;;;;;;;58.00;43.97;;;;;;;4.06;84.12;100041.53;5039642;28;20052;-74
2021/05/01 04:23:50;;;;;;;60.38;44.78;;;;;;;4.04;83.91;100030.19;5039263;28;20052;-73
2021/05/01 04:26:19;;;;;;;63.00;45.08;;;;;;;4.12;83.67;100035.16;5039377;28;20071;-72
2021/05/01 04:28:46;;;;;;;58.78;45.15;;;;;;;4.06;84.11;100047.69;5056673;28;20460;-73
2021/05/01 04:31:12;;;;;;;59.80;44.92;;;;;;;4.03;84.15;100046.94;5056837;28;20049;-72
2021/05/01 04:33:39;;;;;;;61.88;45.92;;;;;;;4.02;83.86;100050.47;5039020;28;20453;-73
2021/05/01 04:36:05;;;;;;;58.85;45.20;;;;;;;3.99;84.47;100046.19;5039290;28;20045;-72
2021/05/01 04:38:31;;;;;;;61.47;44.92;;;;;;;4.05;83.91;100042.47;5039062;28;20074;-73
2021/05/01 04:40:58;;;;;;;58.38;44.10;;;;;;;4.05;84.14;100051.22;5056465;28;20064;-74
2021/05/01 04:43:25;;;;;;;64.68;46.40;;;;;;;4.06;84.29;100058.25;5038561;28;20044;-73
2021/05/01 04:45:53;;;;;;;61.15;44.50;;;;;;;4.08;84.61;100051.13;5056326;28;20323;-73
2021/05/01 04:48:20;;;;;;;59.15;43.78;;;;;;;4.07;84.66;100048.53;5056694;28;20127;-73
2021/05/01 04:50:53;;;;;;;67.70;47.38;;;;;;;4.08;84.68;100053.78;5056490;28;20055;-74
2021/05/01 04:53:19;;;;;;;63.50;46.42;;;;;;;4.06;84.95;100044.19;5039008;28;20057;-73
2021/05/01 04:55:45;;;;;;;63.50;46.67;;;;;;;4.11;85.18;100054.56;5038759;28;20136;-74
2021/05/01 04:58:12;;;;;;;62.83;45.80;;;;;;;4.11;85.08;100052.81;5056426;28;20358;-74
2021/05/01 05:00:38;;;;;;;65.57;46.70;;;;;;;4.20;85.01;100065.66;5055914;28;20057;-73
2021/05/01 05:03:05;;;;;;;62.53;45.60;;;;;;;4.30;84.68;100066.19;5055326;28;20053;-73
2021/05/01 05:05:35;;;;;;;67.03;47.35;;;;;;;4.29;84.95;100072.41;5056108;28;20049;-73
2021/05/01 05:08:02;;;;;;;59.33;44.72;;;;;;;4.37;84.82;100066.84;5056205;28;20052;-73
2021/05/01 05:10:29;;;;;;;62.72;45.22;;;;;;;4.44;84.18;100057.78;5022542;28;20087;-73
2021/05/01 05:12:55;;;;;;;66.18;45.38;;;;;;;4.47;84.25;100062.94;5038629;28;20056;-73
2021/05/01 05:15:21;;;;;;;60.05;46.53;;;;;;;4.47;84.47;100068.22;5035750;28;20049;-73
2021/05/01 05:17:48;;;;;;;63.08;44.35;;;;;;;4.44;84.59;100064.84;5035839;28;20119;-74
2021/05/01 05:20:14;;;;;;;63.47;45.25;;;;;;;4.52;84.31;100069.84;5036151;28;20085;-73
2021/05/01 05:22:40;;;;;;;59.67;45.05;;;;;;;4.55;83.94;100070.59;5018797;28;20045;-73
2021/05/01 05:25:07;;;;;;;61.85;44.35;;;;;;;4.65;83.90;100075.53;5035724;28;20049;-73
2021/05/01 05:27:33;;;;;;;67.50;45.33;;;;;;;4.66;83.74;100077.25;5036157;28;20446;-72
2021/05/01 05:29:59;;;;;;;61.80;44.85;;;;;;;4.60;84.05;100070.41;5018576;28;20057;-74
2021/05/01 05:32:25;;;;;;;65.22;45.30;;;;;;;4.67;84.19;100071.91;5035616;28;20060;-73
2021/05/01 05:34:53;;;;;;;64.13;44.08;;;;;;;4.78;83.86;100075.94;5036147;28;20064;-74
2021/05/01 05:37:19;;;;;;;66.80;46.72;;;;;;;4.80;84.41;100089.94;5035473;28;20076;-73
2021/05/01 05:39:48;;;;;;;59.92;45.80;;;;;;;4.76;84.88;100083.91;5035541;28;20120;-74
2021/05/01 05:42:18;;;;;;;64.97;46.35;;;;;;;4.84;84.50;100083.59;5018851;28;20052;-73
2021/05/01 05:44:48;;;;;;;69.82;47.55;;;;;;;4.71;84.96;100076.16;5035240;28;20443;-73
2021/05/01 05:47:16;;;;;;;64.85;47.33;;;;;;;4.89;84.65;100089.59;5035541;28;20053;-74
2021/05/01 05:49:43;;;;;;;68.03;45.80;;;;;;;4.95;84.33;100086.72;5035465;28;20053;-73
2021/05/01 05:52:10;;;;;;;71.75;45.80;;;;;;;4.98;84.42;100091.91;5034336;28;20137;-73
2021/05/01 05:54:37;;;;;;;65.95;43.83;;;;;;;5.04;84.29;100085.50;5035164;28;20053;-74
2021/05/01 05:57:07;;;;;;;67.95;46.63;;;;;;;5.02;84.18;100082.06;5036164;28;20057;-74
2021/05/01 05:59:35;;;;;;;63.15;45.78;;;;;;;5.08;83.67;100068.59;5035510;28;20145;-73
2021/05/01 06:02:04;;;;;;;61.60;44.05;;;;;;;5.11;84.15;100068.44;5036166;28;20049;-74
2021/05/01 06:04:35;;;;;;;66.13;46.90;;;;;;;5.14;84.55;100076.25;5019318;28;20056;-74
2021/05/01 06:07:12;;;;;;;62.28;43.03;;;;;;;5.13;84.40;100081.63;5018696;28;20115;-74
2021/05/01 06:09:39;;;;;;;62.83;45.40;;;;;;;5.15;84.34;100072.72;5035971;28;20049;-74
2021/05/01 06:12:10;;;;;;;70.05;46.83;;;;;;;5.22;84.06;100070.66;5018497;28;20045;-74
2021/05/01 06:14:42;;;;;;;66.10;46.50;;;;;;;5.34;83.99;100074.59;5035454;28;20500;-73
2021/05/01 06:17:12;;;;;;;63.38;43.83;;;;;;;5.34;83.65;100063.16;5035042;28;20068;-74
2021/05/01 06:19:41;;;;;;;63.42;43.15;;;;;;;5.46;83.87;100072.38;5035435;28;20049;-74
2021/05/01 06:22:10;;;;;;;63.25;42.50;;;;;;;5.49;83.50;100069.63;5036058;28;20057;-74
2021/05/01 06:24:38;;;;;;;61.83;42.40;;;;;;;5.52;83.57;100069.47;5036105;28;20053;-73
2021/05/01 06:27:04;;;;;;;64.22;44.47;;;;;;;5.60;83.85;100066.53;5027508;28;20049;-74
2021/05/01 06:29:31;;;;;;;63.70;40.88;;;;;;;5.67;83.56;100065.34;5025978;28;20060;-74
2021/05/01 06:31:58;;;;;;;56.88;40.53;;;;;;;5.74;83.50;100060.63;5024140;28;20058;-74
2021/05/01 06:34:25;;;;;;;59.45;36.83;;;;;;;5.83;82.69;100060.25;5026753;28;20103;-74
2021/05/01 06:36:52;;;;;;;51.25;35.78;;;;;;;5.83;82.52;100055.78;5002264;28;20100;-74
2021/05/01 06:39:18;;;;;;;52.65;35.20;;;;;;;5.82;81.94;100056.72;5015091;28;20058;-74
2021/05/01 06:41:59;;;;;;;55.38;36.97;;;;;;;5.70;82.22;100050.19;5024280;28;20099;-74
2021/05/01 06:45:00;;;;;;;53.38;39.20;;;;;;;5.93;82.07;100061.56;5015169;28;20053;-75
2021/05/01 06:47:30;;;;;;;50.17;34.40;;;;;;;6.03;82.17;100062.06;5000009;28;20050;-72
2021/05/01 06:50:11;;;;;;;52.40;35.78;;;;;;;6.07;81.69;100061.00;5026608;28;20064;-74
2021/05/01 06:52:46;;;;;;;;;;;;;;;6.20;80.47;100068.38;5034616;28;20423;-74
2021/05/01 06:55:15;;;;;;;44.85;30.65;;;;;;;6.25;80.20;100069.06;5018496;28;19921;-72
2021/05/01 06:57:47;;;;;;;40.95;30.10;;;;;;;6.24;79.76;100064.69;5029316;28;20079;-73
2021/05/01 07:00:15;;;;;;;45.55;30.08;;;;;;;6.12;79.76;100058.16;5023314;28;20042;-78
2021/05/01 07:02:46;;;;;;;44.35;31.10;;;;;;;6.10;80.47;100071.44;5026792;28;20048;-73
2021/05/01 07:05:19;;;;;;;45.50;30.48;;;;;;;6.14;80.37;100069.53;5023672;28;20128;-75
2021/05/01 07:07:47;;;;;;;45.33;29.73;;;;;;;6.31;79.75;100084.69;5027799;28;20049;-73
2021/05/01 07:10:14;;;;;;;41.15;27.73;;;;;;;6.25;78.69;100066.41;5028734;28;20056;-77
2021/05/01 07:12:42;;;;;;;38.47;25.77;;;;;;;6.41;78.47;100074.53;5024929;28;20049;-78
2021/05/01 07:15:11;;;;;;;37.50;26.10;;;;;;;6.44;78.15;100076.19;5033666;28;20418;-76
2021/05/01 07:17:39;;;;;;;43.33;28.27;;;;;;;6.50;78.30;100068.78;5045620;28;20059;-76
2021/05/01 07:20:09;;;;;;;41.67;27.95;;;;;;;6.59;78.04;100069.34;5049453;28;20045;-75
2021/05/01 07:22:36;;;;;;;42.83;29.60;;;;;;;6.58;78.05;100073.75;5048773;28;20096;-84
2021/05/01 07:25:07;;;;;;;41.35;27.58;;;;;;;6.62;77.65;100072.69;5040760;28;20084;-79
2021/05/01 07:27:51;;;;;;;41.42;30.70;;;;;;;6.59;77.02;100051.63;5048637;28;20049;-77
2021/05/01 07:30:20;;;;;;;46.33;29.42;;;;;;;6.68;77.71;100065.38;5054596;28;20440;-81
2021/05/01 07:32:54;;;;;;;40.55;28.90;;;;;;;6.66;76.99;100062.81;5057610;28;20041;-78
2021/05/01 07:35:24;;;;;;;44.08;30.33;;;;;;;6.71;77.01;100067.91;5058310;28;20091;-80
2021/05/01 07:37:54;;;;;;;43.25;28.13;;;;;;;6.80;76.99;100067.47;5040575;28;20044;-78
2021/05/01 07:40:30;;;;;;;44.35;29.80;;;;;;;6.92;76.40;100056.28;5039795;28;20052;-80
2021/05/01 07:43:00;;;;;;;41.80;29.48;;;;;;;7.03;75.51;100062.88;5033167;28;20057;-75
2021/05/01 07:45:28;;;;;;;40.40;26.42;;;;;;;7.22;74.79;100054.88;5057184;28;20465;-77
2021/05/01 07:47:56;;;;;;;37.95;25.33;;;;;;;7.26;74.79;100053.81;5056545;28;20353;-80
2021/05/01 07:50:26;;;;;;;42.92;27.02;;;;;;;7.34;74.25;100056.94;5052033;28;20045;-76
2021/05/01 07:52:53;;;;;;;42.45;26.00;;;;;;;7.28;74.52;100056.34;5030597;28;20041;-73
2021/05/01 07:55:21;;;;;;;41.33;27.27;;;;;;;7.25;73.98;100060.00;5036303;28;20386;-75
2021/05/01 07:57:48;;;;;;;38.22;25.65;;;;;;;7.28;72.95;100049.25;5035581;28;20485;-73
2021/05/01 08:00:16;;;;;;;38.72;26.13;;;;;;;7.22;73.37;100065.50;5037267;28;20045;-74
2021/05/01 08:02:43;;;;;;;36.63;24.77;;;;;;;7.28;72.82;100059.00;5037126;28;20111;-72
2021/05/01 08:05:13;;;;;;;34.03;23.17;;;;;;;7.39;72.34;100061.13;5036495;28;20433;-75
2021/05/01 08:07:40;;;;;;;29.02;21.02;;;;;;;7.38;72.29;100067.38;5037314;28;20053;-73
2021/05/01 08:10:07;;;;;;;27.63;19.50;;;;;;;7.36;70.70;100064.84;5052629;28;20061;-73
2021/05/01 08:12:34;;;;;;;28.85;20.77;;;;;;;7.30;70.45;100073.09;5037212;28;20057;-73
2021/05/01 08:15:00;;;;;;;32.65;22.17;;;;;;;7.19;71.35;100061.19;5020122;28;20054;-73
2021/05/01 08:17:26;;;;;;;28.73;18.77;;;;;;;7.30;71.07;100073.94;5015242;28;20065;-76
2021/05/01 08:19:54;;;;;;;26.73;16.75;;;;;;;7.39;69.29;100075.28;5016589;28;20053;-73
2021/05/01 08:22:21;;;;;;;25.92;16.40;;;;;;;7.42;68.61;100066.31;5017388;28;20061;-74
2021/05/01 08:24:47;;;;;;;25.20;16.33;;;;;;;7.48;68.22;100053.56;5017847;28;20058;-75
2021/05/01 08:27:14;;;;;;;33.88;17.73;;;;;;;7.72;68.69;100055.94;5016310;28;20359;-76
2021/05/01 08:29:40;;;;;;;28.42;16.15;;;;;;;7.77;68.10;100062.81;4983902;28;20104;-73
2021/05/01 08:32:07;;;;;;;20.20;14.65;;;;;;;7.90;66.66;100063.06;5017328;28;20050;-74
2021/05/01 08:34:33;;;;;;;19.80;13.98;;;;;;;7.93;65.40;100053.13;5017218;28;20089;-74
2021/05/01 08:37:00;;;;;;;21.42;14.48;;;;;;;8.13;65.68;100053.88;5016787;28;20046;-77
2021/05/01 08:39:26;;;;;;;25.13;14.38;;;;;;;8.35;66.61;100064.25;5032916;28;20053;-75
2021/05/01 08:42:02;;;;;;;16.20;12.07;;;;;;;8.63;65.16;100078.75;5017256;28;20058;-76
2021/05/01 08:44:29;;;;;;;18.75;11.27;;;;;;;8.64;62.33;100071.63;5016217;28;20055;-72
2021/05/01 08:46:55;;;;;;;18.60;11.63;;;;;;;8.64;62.93;100068.94;5000071;28;20080;-72
2021/05/01 08:49:21;;;;;;;17.30;11.15;;;;;;;8.62;62.51;100065.53;5016971;28;20088;-73
2021/05/01 08:51:49;;;;;;;19.38;11.35;;;;;;;8.43;62.38;100053.19;5017102;28;20073;-75
2021/05/01 08:54:16;;;;;;;14.82;9.90;;;;;;;8.58;62.49;100069.28;5016764;28;20057;-72
2021/05/01 08:56:43;;;;;;;15.32;10.27;;;;;;;8.62;60.25;100068.19;5015484;28;20424;-71
2021/05/01 08:59:10;;;;;;;12.68;8.48;;;;;;;8.59;60.02;100068.34;5016978;28;20076;-72
2021/05/01 09:01:37;;;;;;;14.52;9.07;;;;;;;8.60;60.68;100067.41;5015686;28;20445;-74
2021/05/01 09:04:06;;;;;;;15.25;9.50;;;;;;;8.71;60.90;100059.69;5015551;28;20449;-74
2021/05/01 09:06:33;;;;;;;15.20;9.57;;;;;;;8.77;60.55;100058.50;5016666;28;20344;-75
2021/05/01 09:09:05;;;;;;;12.20;9.00;;;;;;;8.95;59.68;100056.63;5016845;28;20367;-73
2021/05/01 09:11:45;;;;;;;18.42;8.43;;;;;;;9.03;56.29;100065.03;5016972;28;20076;-75
2021/05/01 09:14:19;;;;;;;14.02;9.40;;;;;;;8.98;57.80;100063.59;5030057;28;20116;-72
2021/05/01 09:16:55;;;;;;;12.82;9.73;;;;;;;8.90;57.23;100059.56;5036900;28;20051;-74
2021/05/01 09:19:36;;;;;;;13.18;9.02;;;;;;;8.98;56.48;100047.63;5037393;28;20053;-75
2021/05/01 09:22:13;;;;;;;20.90;9.77;;;;;;;9.10;58.05;100060.25;5036810;28;20049;-75
2021/05/01 09:24:42;;;;;;;16.67;10.05;;;;;;;9.09;55.83;100056.69;5036258;28;20453;-76
2021/05/01 09:27:14;;;;;;;17.70;8.95;;;;;;;9.32;54.75;100056.34;5036440;28;20095;-72
2021/05/01 09:29:41;;;;;;;13.73;9.52;;;;;;;9.50;53.51;100068.56;5035621;28;20065;-75
2021/05/01 09:32:20;;;;;;;16.80;8.30;;;;;;;9.64;52.58;100082.91;5035982;28;20053;-72
2021/05/01 09:34:51;;;;;;;13.55;9.05;;;;;;;9.62;52.40;100075.03;5036061;28;20153;-74
2021/05/01 09:37:21;;;;;;;18.48;8.68;;;;;;;9.76;51.28;100063.53;5035075;28;20056;-72
2021/05/01 09:39:56;;;;;;;11.75;7.78;;;;;;;10.14;49.30;100067.50;5035721;28;20045;-76
2021/05/01 09:42:23;;;;;;;10.70;6.55;;;;;;;10.17;47.22;100069.13;5035136;28;20049;-74
2021/05/01 09:45:10;;;;;;;11.70;7.20;;;;;;;10.44;48.29;100063.97;5034833;28;20060;-75
2021/05/01 09:47:37;;;;;;;14.75;7.35;;;;;;;10.63;48.29;100065.47;5027863;28;20045;-78
2021/05/01 09:50:18;;;;;;;13.60;7.25;;;;;;;10.56;48.79;100066.78;5049917;28;20346;-71
2021/05/01 09:53:16;;;;;;;9.30;6.13;;;;;;;10.67;45.77;100064.31;5035972;28;20052;-75
2021/05/01 09:55:55;;;;;;;14.63;7.35;;;;;;;10.50;46.23;100060.03;5034620;28;20053;-75
2021/05/01 09:58:27;;;;;;;16.35;5.70;;;;;;;10.40;46.52;100064.22;5036304;28;20132;-74
2021/05/01 10:01:14;;;;;;;9.70;5.38;;;;;;;10.31;46.05;100073.63;5036829;28;20136;-73
2021/05/01 10:03:44;;;;;;;7.43;4.65;;;;;;;10.33;46.87;100066.38;5037001;28;20073;-74
2021/05/01 10:06:15;;;;;;;10.52;6.18;;;;;;;10.69;46.34;100067.72;5035975;28;20048;-76
2021/05/01 10:08:42;;;;;;;;;;;;;;;10.88;46.85;100060.41;5035890;28;20053;-75
2021/05/01 10:11:12;;;;;;;12.50;5.78;;;;;;;11.32;45.38;100061.13;5035771;28;19936;-78
2021/05/01 10:13:51;;;;;;;11.18;5.88;;;;;;;11.46;45.35;100066.41;5035420;28;20080;-76
2021/05/01 10:16:19;;;;;;;11.32;5.97;;;;;;;11.20;45.96;100063.66;5035250;28;20088;-79
2021/05/01 10:19:12;;;;;;;10.38;6.53;;;;;;;11.26;46.80;100060.56;5035672;28;20469;-73
2021/05/01 10:21:46;;;;;;;13.00;7.43;;;;;;;11.25;48.15;100058.00;5032621;28;20049;-75
2021/05/01 10:24:14;;;;;;;14.25;8.10;;;;;;;11.00;49.26;100049.78;5030056;28;20057;-74
2021/05/01 10:26:48;;;;;;;14.60;6.95;;;;;;;10.81;48.67;100043.91;5036014;28;20083;-76
2021/05/01 10:29:45;;;;;;;11.02;7.32;;;;;;;11.08;48.41;100043.06;5029654;28;20082;-78
2021/05/01 10:32:29;;;;;;;16.65;7.47;;;;;;;11.40;47.47;100045.44;5034543;28;20434;-75
2021/05/01 10:35:00;;;;;;;12.52;7.13;;;;;;;11.76;44.56;100043.09;5018688;28;20461;-76
2021/05/01 10:37:36;;;;;;;12.43;5.80;;;;;;;11.81;43.45;100028.44;5024510;28;20116;-74
2021/05/01 10:40:03;;;;;;;11.38;7.07;;;;;;;11.86;43.86;100025.44;5028064;28;20049;-74
2021/05/01 10:42:29;;;;;;;9.80;6.15;;;;;;;11.94;44.45;100035.59;5035396;28;20049;-74
2021/05/01 10:44:58;;;;;;;12.68;5.95;;;;;;;12.20;43.33;100038.34;5032118;28;20138;-73
2021/05/01 10:47:25;;;;;;;8.50;5.40;;;;;;;12.66;41.98;100027.97;5028791;28;20054;-79
2021/05/01 10:50:17;;;;;;;9.27;6.28;;;;;;;12.97;42.78;100036.47;5041440;28;20084;-74
2021/05/01 10:52:44;;;;;;;8.70;5.38;;;;;;;12.68;41.75;100031.44;5032014;28;20041;-74
2021/05/01 10:55:11;;;;;;;8.52;5.85;;;;;;;12.46;41.66;100035.63;5042321;28;20073;-74
2021/05/01 10:57:39;;;;;;;9.32;6.20;;;;;;;12.19;42.91;100032.13;5028798;28;20377;-77
2021/05/01 11:00:10;;;;;;;11.10;5.85;;;;;;;12.41;42.87;100041.28;5007295;28;20049;-79
2021/05/01 11:02:47;;;;;;;9.80;5.85;;;;;;;12.50;43.64;100034.44;5030843;28;20086;-73
2021/05/01 11:05:14;;;;;;;12.82;5.90;;;;;;;12.66;42.15;100038.69;5034615;28;20502;-71
2021/05/01 11:07:45;;;;;;;16.25;6.80;;;;;;;12.68;42.01;100034.94;5031082;28;20053;-74
2021/05/01 11:10:15;;;;;;;8.07;4.75;;;;;;;12.57;42.29;100035.72;5028721;28;20548;-74
2021/05/01 11:12:49;;;;;;;13.60;6.32;;;;;;;12.38;42.16;100019.25;5033341;28;20056;-72
2021/05/01 11:15:19;;;;;;;9.13;5.93;;;;;;;12.12;42.79;100029.97;5036565;28;20045;-73
2021/05/01 11:17:59;;;;;;;8.80;5.15;;;;;;;12.00;43.36;100015.59;5037357;28;20064;-72
2021/05/01 11:20:30;;;;;;;8.57;5.83;;;;;;;11.98;42.85;100017.53;5036876;28;20401;-73
2021/05/01 11:22:56;;;;;;;9.07;6.00;;;;;;;12.01;42.97;100023.53;5037762;28;20058;-72
2021/05/01 11:25:23;;;;;;;12.13;5.65;;;;;;;12.45;43.10;100009.81;5037814;28;20095;-75
2021/05/01 11:27:52;;;;;;;15.07;6.35;;;;;;;12.24;42.41;100021.09;5037368;28;20049;-73
2021/05/01 11:30:24;;;;;;;9.48;5.60;;;;;;;12.16;43.01;100018.09;5037995;28;20057;-71